Edina — V4DE3 — position and weather

sailwx.info

Track history (hours):
 
Tides and Currents Weather Stations Pressure Air Temp Water Temp Dewpoint Dewpoint Depression Visibility Wind Speed Wind Dir Waves Ship Positions

Edina

Last reported at 2017-Sep-18 17:10 UTC. Time now 2017-Sep-23 07:18 UTC.
Position N 13°60' W 061°07'.

Length 30 m; draft 4.2 m.

Type: Tug. MMSI: 341645000.

Date/timePositionNaut miles runAvg speedWind from/ knotsBaromVisibWave heightAir tempDewpointWater temp
2017-Sep-18 17:10N 13°60' W 061°07'1 5.6
2017-Sep-18 16:55N 14°01' W 061°07'2 5.4
2017-Sep-18 16:30N 14°03' W 061°07'3 5.3
2017-Sep-18 16:00N 14°06' W 061°07'3 5.3
2017-Sep-18 15:30N 14°08' W 061°08'3 5.5
2017-Sep-18 15:00N 14°11' W 061°08'3 6.1
2017-Sep-18 14:30N 14°14' W 061°09'  
2017-Sep-14 04:57N 14°37' W 061°12'3 3.1
2017-Sep-14 04:03N 14°34' W 061°11'0 3.2
2017-Sep-14 03:58N 14°34' W 061°11'2 3.2
2017-Sep-14 03:26N 14°32' W 061°11'1 3.4
2017-Sep-14 03:00N 14°31' W 061°10'1 1.3
2017-Sep-14 02:29N 14°30' W 061°10'2 3.7
2017-Sep-14 01:59N 14°32' W 061°10'2 3.7
2017-Sep-14 01:30N 14°34' W 061°11'2 3.8
2017-Sep-14 01:00N 14°36' W 061°11'2 0.1
2017-Sep-12 13:18N 14°34' W 061°10'3 7.5
2017-Sep-12 12:58N 14°31' W 061°10'3 7.3
2017-Sep-12 12:30N 14°28' W 061°09'4 8.2
2017-Sep-12 12:00N 14°24' W 061°08'4 8.4
2017-Sep-12 11:30N 14°20' W 061°07'  
Track history (hours):
 
Tides and Currents Weather Stations Pressure Air Temp Water Temp Dewpoint Dewpoint Depression Visibility Wind Speed Wind Dir Waves Ship Positions

Edina

Last reported at 2017-Sep-18 17:10 UTC. Time now 2017-Sep-23 07:18 UTC.
Position N 13°60' W 061°07'.

Length 30 m; draft 4.2 m.

Type: Tug. MMSI: 341645000.

Date/timePositionNaut miles runAvg speedWind from/ knotsBaromVisibWave heightAir tempDewpointWater temp
2017-Sep-18 17:10N 13°60' W 061°07'1 5.6
2017-Sep-18 16:55N 14°01' W 061°07'2 5.4
2017-Sep-18 16:30N 14°03' W 061°07'3 5.3
2017-Sep-18 16:00N 14°06' W 061°07'3 5.3
2017-Sep-18 15:30N 14°08' W 061°08'3 5.5
2017-Sep-18 15:00N 14°11' W 061°08'3 6.1
2017-Sep-18 14:30N 14°14' W 061°09'  
2017-Sep-14 04:57N 14°37' W 061°12'3 3.1
2017-Sep-14 04:03N 14°34' W 061°11'0 3.2
2017-Sep-14 03:58N 14°34' W 061°11'2 3.2
2017-Sep-14 03:26N 14°32' W 061°11'1 3.4
2017-Sep-14 03:00N 14°31' W 061°10'1 1.3
2017-Sep-14 02:29N 14°30' W 061°10'2 3.7
2017-Sep-14 01:59N 14°32' W 061°10'2 3.7
2017-Sep-14 01:30N 14°34' W 061°11'2 3.8
2017-Sep-14 01:00N 14°36' W 061°11'2 0.1
2017-Sep-12 13:18N 14°34' W 061°10'3 7.5
2017-Sep-12 12:58N 14°31' W 061°10'3 7.3
2017-Sep-12 12:30N 14°28' W 061°09'4 8.2
2017-Sep-12 12:00N 14°24' W 061°08'4 8.4
2017-Sep-12 11:30N 14°20' W 061°07'  

Dump ship's entire track history